Disclaimer

Please do not use the information listed here in-flight or in-navigation, as they are not provided to us by the airports but are provided by volunteers, so they might be outdated.

Search


Regions


Airport information page

Radio informations:
MATAMOROS APP/TW - 118.0 MHz

Airport informations:
Latitude: 25° 46' 11.62" N
Longitude: 097° 31' 31.12" W
Elevation: 25 feet - 8 meters
Operating hours: Remarks
Operating agency: Civil government, landing fees and diplomatic clearance may be required
Timezone: UTC-6(-5DT) - First Sunday in April to the last Saturday in October
Fuel: Jet A, without icing inhibitor.

91/96 octane gasoline, leaded, No MIL Spec.

80/87 octane gasoline, leaded, MIL-L-5572F (RED)

Runway information:
15/33 - 7546 x 151 feet< - >2300 x 46 meters

Recent METARs:
MMMA 131945Z 32015KT 8SM OVC080 07/M01 A3048 RMK 8/05/
MMMA 131945Z 32015KT 8SM OVC080 07/M01 A3048 RMK 8/05/
MMMA 132041Z 33015KT 8SM OVC080 08/M01 A3045 RMK SLP310 57025 949 8/05/

Airport on the map: